createdAt,value
2022-08-20T00:02:14.725Z,25.48
2022-08-20T00:04:44.318Z,25.45
2022-08-20T00:07:12.560Z,25.41
2022-08-20T00:09:41.723Z,25.35
2022-08-20T00:12:11.127Z,25.30
2022-08-20T00:14:39.270Z,25.25
2022-08-20T00:17:07.624Z,25.23
2022-08-20T00:19:35.980Z,25.16
2022-08-20T00:22:05.602Z,25.19
2022-08-20T00:24:35.068Z,25.16
2022-08-20T00:27:03.471Z,25.15
2022-08-20T00:29:31.658Z,25.11
2022-08-20T00:32:00.208Z,25.07
2022-08-20T00:34:28.852Z,25.04
2022-08-20T00:36:57.031Z,25.03
2022-08-20T00:39:26.678Z,25.01
2022-08-20T00:41:54.975Z,24.95
2022-08-20T00:44:24.422Z,24.93
2022-08-20T00:46:53.905Z,24.96
2022-08-20T00:49:24.992Z,24.96
2022-08-20T00:51:58.791Z,24.97
2022-08-20T00:54:31.377Z,24.99
2022-08-20T00:57:04.977Z,24.96
2022-08-20T00:59:35.503Z,24.94
2022-08-20T01:02:05.260Z,24.95
2022-08-20T01:04:35.866Z,24.83
2022-08-20T01:07:06.540Z,24.82
2022-08-20T01:09:58.093Z,24.80
2022-08-20T01:12:27.695Z,24.80
2022-08-20T01:14:56.675Z,24.75
2022-08-20T01:17:27.223Z,24.69
2022-08-20T01:19:59.750Z,24.58
2022-08-20T01:22:54.620Z,24.57
2022-08-20T01:25:34.484Z,24.51
2022-08-20T01:28:04.884Z,24.53
2022-08-20T01:30:35.199Z,24.48
2022-08-20T01:33:03.464Z,24.38
2022-08-20T01:35:36.001Z,24.38
2022-08-20T01:38:04.131Z,24.39
2022-08-20T01:40:49.861Z,24.39
2022-08-20T01:43:19.412Z,24.40
2022-08-20T01:45:50.192Z,24.38
2022-08-20T01:48:19.809Z,24.32
2022-08-20T01:51:02.243Z,24.33
2022-08-20T01:53:34.728Z,24.32
2022-08-20T01:56:04.266Z,24.22
2022-08-20T01:58:36.763Z,24.24
2022-08-20T02:01:05.309Z,24.19
2022-08-20T02:03:38.857Z,24.19
2022-08-20T02:06:10.578Z,24.14
2022-08-20T02:08:38.642Z,24.08
2022-08-20T02:11:06.932Z,24.06
2022-08-20T02:13:36.410Z,24.08
2022-08-20T02:16:06.244Z,24.01
2022-08-20T02:18:34.544Z,23.98
2022-08-20T02:21:03.458Z,23.96
2022-08-20T02:23:31.593Z,23.97
2022-08-20T02:26:00.454Z,23.89
2022-08-20T02:28:28.924Z,23.94
2022-08-20T02:31:00.608Z,23.90
2022-08-20T02:33:28.794Z,23.92
2022-08-20T02:35:58.011Z,23.88
2022-08-20T02:38:26.494Z,23.79
2022-08-20T02:40:54.692Z,23.70
2022-08-20T02:43:22.842Z,23.59
2022-08-20T02:45:51.721Z,23.67
2022-08-20T02:48:23.240Z,23.63
2022-08-20T02:50:54.244Z,23.60
2022-08-20T02:53:22.546Z,23.55
2022-08-20T02:55:50.819Z,23.49
2022-08-20T02:58:20.145Z,23.48
2022-08-20T03:00:48.766Z,23.48
2022-08-20T03:03:22.387Z,23.47
2022-08-20T03:05:54.364Z,23.49
2022-08-20T03:08:23.571Z,23.51
2022-08-20T03:10:52.777Z,23.49
2022-08-20T03:13:22.251Z,23.45
2022-08-20T03:15:57.938Z,23.43
2022-08-20T03:18:28.844Z,23.34
2022-08-20T03:20:58.526Z,23.26
2022-08-20T03:23:27.024Z,23.19
2022-08-20T03:25:55.180Z,23.10
2022-08-20T03:28:23.513Z,23.10
2022-08-20T03:30:53.250Z,23.16
2022-08-20T03:33:22.669Z,23.14
2022-08-20T03:35:51.123Z,23.27
2022-08-20T03:38:32.830Z,23.26
2022-08-20T03:41:03.549Z,23.33
2022-08-20T03:43:32.642Z,23.27
2022-08-20T03:46:01.069Z,23.23
2022-08-20T03:48:29.295Z,23.26
2022-08-20T03:51:00.834Z,23.30
2022-08-20T03:53:31.903Z,23.43
2022-08-20T03:56:05.048Z,23.35
2022-08-20T03:58:35.590Z,23.48
2022-08-20T04:01:07.797Z,23.46
2022-08-20T04:03:58.742Z,23.33
2022-08-20T04:06:27.952Z,23.44
2022-08-20T04:08:57.736Z,23.46
2022-08-20T04:11:26.511Z,23.58
2022-08-20T04:13:54.595Z,23.86
2022-08-20T04:16:22.804Z,24.02
2022-08-20T04:18:56.267Z,23.97
2022-08-20T04:21:33.129Z,24.07
2022-08-20T04:24:03.681Z,24.22
2022-08-20T04:26:32.114Z,24.20
2022-08-20T04:29:00.355Z,24.20
2022-08-20T04:31:33.722Z,24.18
2022-08-20T04:34:03.224Z,24.35
2022-08-20T04:36:31.500Z,24.60
2022-08-20T04:38:59.687Z,24.53
2022-08-20T04:41:28.314Z,24.58
2022-08-20T04:43:58.624Z,24.45
2022-08-20T04:46:28.982Z,24.49
2022-08-20T04:48:57.948Z,24.63
2022-08-20T04:51:26.931Z,24.71
2022-08-20T04:53:56.688Z,24.69
2022-08-20T04:56:27.404Z,24.82
2022-08-20T04:58:59.043Z,25.01
2022-08-20T05:01:28.256Z,25.14
2022-08-20T05:03:57.545Z,25.22
2022-08-20T05:06:28.744Z,25.28
2022-08-20T05:08:59.393Z,25.29
2022-08-20T05:11:34.472Z,25.14
2022-08-20T05:14:09.000Z,25.31
2022-08-20T05:16:41.136Z,25.25
2022-08-20T05:19:12.065Z,25.62
2022-08-20T05:21:41.574Z,25.74
2022-08-20T05:24:10.554Z,25.79
2022-08-20T05:26:38.732Z,25.81
2022-08-20T05:29:08.383Z,25.89
2022-08-20T05:31:38.569Z,25.84
2022-08-20T05:34:11.374Z,25.94
2022-08-20T05:36:41.103Z,25.84
2022-08-20T05:39:10.465Z,25.90
2022-08-20T05:41:39.054Z,26.09
2022-08-20T05:44:10.930Z,26.31
2022-08-20T05:46:41.054Z,26.37
2022-08-20T05:49:09.536Z,26.37
2022-08-20T05:51:38.235Z,26.38
2022-08-20T05:54:08.048Z,26.36
2022-08-20T05:56:37.382Z,26.63
2022-08-20T05:59:07.793Z,26.48
2022-08-20T06:01:40.534Z,26.16
2022-08-20T06:04:28.258Z,26.42
2022-08-20T06:06:59.702Z,26.65
2022-08-20T06:09:31.766Z,26.64
2022-08-20T06:12:02.610Z,26.56
2022-08-20T06:14:31.407Z,26.57
2022-08-20T06:17:06.465Z,26.70
2022-08-20T06:19:35.353Z,26.92
2022-08-20T06:22:17.759Z,26.90
2022-08-20T06:24:48.847Z,26.80
2022-08-20T06:27:18.426Z,26.77
2022-08-20T06:29:47.165Z,26.88
2022-08-20T06:32:17.624Z,27.16
2022-08-20T06:34:49.824Z,27.09
2022-08-20T06:37:22.049Z,27.03
2022-08-20T06:39:50.886Z,27.04
2022-08-20T06:42:21.021Z,27.33
2022-08-20T06:44:51.027Z,27.12
2022-08-20T06:47:22.027Z,27.09
2022-08-20T06:49:50.498Z,27.21
2022-08-20T06:52:19.084Z,27.33
2022-08-20T06:54:47.755Z,27.50
2022-08-20T06:57:17.382Z,27.58
2022-08-20T06:59:45.476Z,27.60
2022-08-20T07:02:30.147Z,27.76
2022-08-20T07:04:59.069Z,27.99
2022-08-20T07:07:27.349Z,28.03
2022-08-20T07:10:01.341Z,28.31
2022-08-20T07:12:29.874Z,28.49
2022-08-20T07:14:57.990Z,28.61
2022-08-20T07:17:27.560Z,28.72
2022-08-20T07:19:55.887Z,28.85
2022-08-20T07:22:24.984Z,28.78
2022-08-20T07:24:53.257Z,29.09
2022-08-20T07:27:24.251Z,29.05
2022-08-20T07:30:12.842Z,29.03
2022-08-20T07:32:46.010Z,29.18
2022-08-20T07:35:18.448Z,29.29
2022-08-20T07:37:49.596Z,28.96
2022-08-20T07:40:25.735Z,29.09
2022-08-20T07:42:54.840Z,29.33
2022-08-20T07:45:23.888Z,29.52
2022-08-20T07:47:54.341Z,29.47
2022-08-20T07:50:26.309Z,29.58
2022-08-20T07:52:54.746Z,29.78
2022-08-20T07:55:23.271Z,29.95
2022-08-20T07:57:52.253Z,29.87
2022-08-20T08:00:22.932Z,29.73
2022-08-20T08:02:51.088Z,29.76
2022-08-20T08:05:20.949Z,29.89
2022-08-20T08:07:49.192Z,29.94
2022-08-20T08:10:21.834Z,29.42
2022-08-20T08:12:54.637Z,29.37
2022-08-20T08:15:25.775Z,29.23
2022-08-20T08:17:55.547Z,29.27
2022-08-20T08:20:25.356Z,29.41
2022-08-20T08:22:53.936Z,29.60
2022-08-20T08:25:22.255Z,29.95
2022-08-20T08:28:08.002Z,29.96
2022-08-20T08:30:36.175Z,30.06
2022-08-20T08:33:21.363Z,30.05
2022-08-20T08:35:51.573Z,30.26
2022-08-20T08:38:20.156Z,30.36
2022-08-20T08:40:52.210Z,30.60
2022-08-20T08:43:31.837Z,30.60
2022-08-20T08:46:02.966Z,30.51
2022-08-20T08:48:36.583Z,30.44
2022-08-20T08:51:12.547Z,30.59
2022-08-20T08:53:47.417Z,30.58
2022-08-20T08:56:16.743Z,30.62
2022-08-20T08:58:45.218Z,30.56
2022-08-20T09:01:54.243Z,30.46
2022-08-20T09:04:06.304Z,30.62
2022-08-20T09:06:36.012Z,30.88
2022-08-20T09:09:06.707Z,30.59
2022-08-20T09:11:47.803Z,30.76
2022-08-20T09:14:16.178Z,30.86
2022-08-20T09:16:52.402Z,30.93
2022-08-20T09:19:21.765Z,30.73
2022-08-20T09:21:51.373Z,30.97
2022-08-20T09:24:19.647Z,30.79
2022-08-20T09:26:48.054Z,30.85
2022-08-20T09:29:16.176Z,31.03
2022-08-20T09:31:45.109Z,31.38
2022-08-20T09:34:14.852Z,31.71
2022-08-20T09:36:42.941Z,31.74
2022-08-20T09:39:12.735Z,31.75
2022-08-20T09:41:41.512Z,31.73
2022-08-20T09:44:09.590Z,31.66
2022-08-20T09:46:38.171Z,31.65
2022-08-20T09:49:06.306Z,31.77
2022-08-20T09:51:38.431Z,31.71
2022-08-20T09:54:07.469Z,31.74
2022-08-20T09:56:37.157Z,31.90
2022-08-20T09:59:05.463Z,31.98
2022-08-20T10:01:35.101Z,32.09
2022-08-20T10:04:03.247Z,32.18
2022-08-20T10:06:34.599Z,32.41
2022-08-20T10:09:05.598Z,32.53
2022-08-20T10:11:33.877Z,32.50
2022-08-20T10:14:03.686Z,32.51
2022-08-20T10:16:31.899Z,32.56
2022-08-20T10:19:00.053Z,32.85
2022-08-20T10:21:28.746Z,32.77
2022-08-20T10:23:56.898Z,32.83
2022-08-20T10:26:25.413Z,32.87
2022-08-20T10:28:54.177Z,32.94
2022-08-20T10:31:23.863Z,32.78
2022-08-20T10:33:51.917Z,32.78
2022-08-20T10:36:20.445Z,32.96
2022-08-20T10:38:49.637Z,33.27
2022-08-20T10:41:17.842Z,33.47
2022-08-20T10:43:46.076Z,33.55
2022-08-20T10:46:14.547Z,33.72
2022-08-20T10:48:44.537Z,33.41
2022-08-20T10:51:12.682Z,33.65
2022-08-20T10:53:41.222Z,33.67
2022-08-20T10:56:11.742Z,33.59
2022-08-20T10:58:43.230Z,33.74
2022-08-20T11:01:12.974Z,33.76
2022-08-20T11:04:01.471Z,33.69
2022-08-20T11:06:29.668Z,33.71
2022-08-20T11:08:57.838Z,33.79
2022-08-20T11:11:26.024Z,33.86
2022-08-20T11:13:54.162Z,33.98
2022-08-20T11:16:22.865Z,34.19
2022-08-20T11:18:51.150Z,34.28
2022-08-20T11:21:20.685Z,34.22
2022-08-20T11:23:48.891Z,34.04
2022-08-20T11:26:26.452Z,34.14
2022-08-20T11:28:54.587Z,34.38
2022-08-20T11:31:22.725Z,34.62
2022-08-20T11:33:51.103Z,34.90
2022-08-20T11:36:20.786Z,34.96
2022-08-20T11:38:49.650Z,34.96
2022-08-20T11:41:17.767Z,34.90
2022-08-20T11:44:04.717Z,34.92
2022-08-20T11:46:34.211Z,34.87
2022-08-20T11:49:02.932Z,34.83
2022-08-20T11:51:39.919Z,34.97
2022-08-20T11:54:18.077Z,34.66
2022-08-20T11:56:46.312Z,34.40
2022-08-20T11:59:14.627Z,34.54
2022-08-20T12:01:46.643Z,34.44
2022-08-20T12:04:35.133Z,34.52
2022-08-20T12:07:16.130Z,34.66
2022-08-20T12:09:50.912Z,34.72
2022-08-20T12:12:21.483Z,35.03
2022-08-20T12:14:49.784Z,34.94
2022-08-20T12:17:21.677Z,34.71
2022-08-20T12:19:49.777Z,34.81
2022-08-20T12:22:24.872Z,34.86
2022-08-20T12:24:55.007Z,34.84
2022-08-20T12:27:25.088Z,34.76
2022-08-20T12:29:55.714Z,34.71
2022-08-20T12:32:25.138Z,34.97
2022-08-20T12:34:54.155Z,35.10
2022-08-20T12:37:26.305Z,34.89
2022-08-20T12:39:57.288Z,34.89
2022-08-20T12:42:25.964Z,34.84
2022-08-20T12:44:54.323Z,34.96
2022-08-20T12:47:24.581Z,34.89
2022-08-20T12:49:56.318Z,34.90
2022-08-20T12:52:27.035Z,34.95
2022-08-20T12:54:55.912Z,34.84
2022-08-20T12:57:28.846Z,34.91
2022-08-20T12:59:57.269Z,34.88
2022-08-20T13:02:27.596Z,34.75
2022-08-20T13:04:55.752Z,34.91
2022-08-20T13:07:27.872Z,35.01
2022-08-20T13:09:56.238Z,35.07
2022-08-20T13:12:24.453Z,35.02
2022-08-20T13:14:52.604Z,34.95
2022-08-20T13:17:24.354Z,35.10
2022-08-20T13:20:09.821Z,34.96
2022-08-20T13:22:39.861Z,34.96
2022-08-20T13:25:09.891Z,34.96
2022-08-20T13:27:39.045Z,34.99
2022-08-20T13:30:09.764Z,34.88
2022-08-20T13:32:38.121Z,34.84
2022-08-20T13:35:07.113Z,34.57
2022-08-20T13:37:35.698Z,34.66
2022-08-20T13:40:08.196Z,34.61
2022-08-20T13:42:36.787Z,34.67
2022-08-20T13:45:06.214Z,34.76
2022-08-20T13:47:36.629Z,34.94
2022-08-20T13:50:08.294Z,34.81
2022-08-20T13:52:36.531Z,34.96
2022-08-20T13:55:09.228Z,35.02
2022-08-20T13:57:38.730Z,35.15
2022-08-20T14:00:11.746Z,35.43
2022-08-20T14:02:40.484Z,35.34
2022-08-20T14:05:09.510Z,35.23
2022-08-20T14:07:39.120Z,35.37
2022-08-20T14:10:12.191Z,35.40
2022-08-20T14:12:40.775Z,35.42
2022-08-20T14:15:10.429Z,35.30
2022-08-20T14:17:40.602Z,35.20
2022-08-20T14:20:11.727Z,34.85
2022-08-20T14:22:40.189Z,34.72
2022-08-20T14:25:13.001Z,34.76
2022-08-20T14:27:41.726Z,34.88
2022-08-20T14:30:13.303Z,35.03
2022-08-20T14:32:41.506Z,34.91
2022-08-20T14:35:10.802Z,35.06
2022-08-20T14:37:40.817Z,35.27
2022-08-20T14:40:13.200Z,35.27
2022-08-20T14:42:43.059Z,35.23
2022-08-20T14:45:14.120Z,35.44
2022-08-20T14:47:45.164Z,35.24
2022-08-20T14:50:15.501Z,35.12
2022-08-20T14:52:44.578Z,34.95
2022-08-20T14:55:16.406Z,34.84
2022-08-20T14:57:44.534Z,35.06
2022-08-20T15:00:16.109Z,35.12
2022-08-20T15:02:44.706Z,35.15
2022-08-20T15:05:13.575Z,35.00
2022-08-20T15:07:44.107Z,34.90
2022-08-20T15:10:16.359Z,34.87
2022-08-20T15:12:45.472Z,34.95
2022-08-20T15:15:16.097Z,34.95
2022-08-20T15:17:46.967Z,34.97
2022-08-20T15:20:20.251Z,34.83
2022-08-20T15:22:50.232Z,34.90
2022-08-20T15:25:23.230Z,34.99
2022-08-20T15:27:51.801Z,34.89
2022-08-20T15:30:23.147Z,34.91
2022-08-20T15:32:55.042Z,34.93
2022-08-20T15:35:30.276Z,34.90
2022-08-20T15:37:59.611Z,34.98
2022-08-20T15:40:32.344Z,34.83
2022-08-20T15:43:02.745Z,34.77
2022-08-20T15:45:31.196Z,34.70
2022-08-20T15:48:04.644Z,34.54
2022-08-20T15:50:42.738Z,34.51
2022-08-20T15:53:13.358Z,34.43
2022-08-20T15:55:55.342Z,34.32
2022-08-20T15:58:32.958Z,34.25
2022-08-20T16:01:24.536Z,34.19
2022-08-20T16:04:21.181Z,34.15
2022-08-20T16:06:53.047Z,34.08
2022-08-20T16:09:38.052Z,34.06
2022-08-20T16:12:11.336Z,34.14
2022-08-20T16:14:42.171Z,33.99
2022-08-20T16:17:14.755Z,33.90
2022-08-20T16:19:52.830Z,33.60
2022-08-20T16:22:21.678Z,33.31
2022-08-20T16:24:52.211Z,32.94
2022-08-20T16:27:30.512Z,32.49
2022-08-20T16:30:04.247Z,32.30
2022-08-20T16:32:39.522Z,32.08
2022-08-20T16:35:30.117Z,31.91
2022-08-20T16:38:05.378Z,31.92
2022-08-20T16:40:37.803Z,31.68
2022-08-20T16:43:09.374Z,31.29
2022-08-20T16:45:50.130Z,30.99
2022-08-20T16:48:19.688Z,30.81
2022-08-20T16:50:57.341Z,30.61
2022-08-20T16:53:26.953Z,30.53
2022-08-20T16:55:57.222Z,30.42
2022-08-20T16:58:27.187Z,30.32
2022-08-20T17:01:10.095Z,30.29
2022-08-20T17:03:40.109Z,30.09
2022-08-20T17:06:21.483Z,30.04
2022-08-20T17:08:52.438Z,29.87
2022-08-20T17:11:29.107Z,29.85
2022-08-20T17:14:11.586Z,29.55
2022-08-20T17:16:43.955Z,29.43
2022-08-20T17:19:16.588Z,29.34
2022-08-20T17:21:44.933Z,29.31
2022-08-20T17:24:25.467Z,29.25
2022-08-20T17:27:18.696Z,29.18
2022-08-20T17:29:53.916Z,29.10
2022-08-20T17:32:24.891Z,29.11
2022-08-20T17:34:55.652Z,29.09
2022-08-20T17:37:27.124Z,29.10
2022-08-20T17:40:06.161Z,29.07
2022-08-20T17:42:34.644Z,29.04
2022-08-20T17:45:10.468Z,29.02
2022-08-20T17:47:41.335Z,29.01
2022-08-20T17:50:14.744Z,28.95
2022-08-20T17:52:50.023Z,28.99
2022-08-20T17:55:18.677Z,28.96
2022-08-20T17:57:50.443Z,29.05
2022-08-20T18:00:25.460Z,29.02
2022-08-20T18:02:56.206Z,29.00
2022-08-20T18:05:25.234Z,28.96
2022-08-20T18:08:20.539Z,28.93
2022-08-20T18:10:58.332Z,28.88
2022-08-20T18:13:48.342Z,28.90
2022-08-20T18:16:27.487Z,28.91
2022-08-20T18:19:06.022Z,28.93
2022-08-20T18:21:53.788Z,28.93
2022-08-20T18:24:29.032Z,28.88
2022-08-20T18:27:02.265Z,28.87
2022-08-20T18:29:33.731Z,28.81
2022-08-20T18:32:07.067Z,28.72
2022-08-20T18:34:40.215Z,28.60
2022-08-20T18:37:22.355Z,28.52
2022-08-20T18:39:52.267Z,28.41
2022-08-20T18:42:30.014Z,28.19
2022-08-20T18:44:59.186Z,28.18
2022-08-20T18:47:40.199Z,28.13
2022-08-20T18:50:18.612Z,28.01
2022-08-20T18:52:50.079Z,27.80
2022-08-20T18:55:31.778Z,27.32
2022-08-20T18:58:03.217Z,26.93
2022-08-20T19:00:38.802Z,26.54
2022-08-20T19:03:18.469Z,26.13
2022-08-20T19:06:09.187Z,25.93
2022-08-20T19:08:45.188Z,25.78
2022-08-20T19:11:41.307Z,25.69
2022-08-20T19:14:37.304Z,25.60
2022-08-20T19:17:11.522Z,25.54
2022-08-20T19:19:41.455Z,25.54
2022-08-20T19:22:14.862Z,25.63
2022-08-20T19:24:44.565Z,25.74
2022-08-20T19:27:14.273Z,25.75
2022-08-20T19:29:47.959Z,25.80
2022-08-20T19:32:21.171Z,25.75
2022-08-20T19:35:00.763Z,25.67
2022-08-20T19:37:44.459Z,25.47
2022-08-20T19:40:28.580Z,25.28
2022-08-20T19:42:59.454Z,25.21
2022-08-20T19:45:31.902Z,25.13
2022-08-20T19:48:27.080Z,25.10
2022-08-20T19:51:06.195Z,25.07
2022-08-20T19:53:37.797Z,25.02
2022-08-20T19:56:10.866Z,24.99
2022-08-20T19:58:39.438Z,24.92
2022-08-20T20:01:16.809Z,24.82
2022-08-20T20:03:56.894Z,24.66
2022-08-20T20:06:27.577Z,24.48
2022-08-20T20:08:59.132Z,24.39
2022-08-20T20:11:32.775Z,24.41
2022-08-20T20:14:06.644Z,24.49
2022-08-20T20:16:35.720Z,24.49
2022-08-20T20:19:25.929Z,24.57
2022-08-20T20:22:08.488Z,24.64
2022-08-20T20:24:51.312Z,24.66
2022-08-20T20:27:23.327Z,24.71
2022-08-20T20:30:10.230Z,24.70
2022-08-20T20:32:42.389Z,24.69
2022-08-20T20:35:11.214Z,24.65
2022-08-20T20:37:49.872Z,24.66
2022-08-20T20:40:26.379Z,24.67
2022-08-20T20:43:05.154Z,24.65
2022-08-20T20:45:36.306Z,24.63
2022-08-20T20:48:21.376Z,24.63
2022-08-20T20:50:51.578Z,24.64
2022-08-20T20:53:53.158Z,24.45
2022-08-20T20:56:35.952Z,23.95
2022-08-20T20:59:07.498Z,23.36
2022-08-20T21:01:48.369Z,22.82
2022-08-20T21:04:19.450Z,22.34
2022-08-20T21:06:48.042Z,22.10
2022-08-20T21:09:18.144Z,21.79
2022-08-20T21:11:46.767Z,21.46
2022-08-20T21:14:15.276Z,21.20
2022-08-20T21:16:44.040Z,20.67
2022-08-20T21:19:13.418Z,20.18
2022-08-20T21:21:43.230Z,19.96
2022-08-20T21:24:12.012Z,19.85
2022-08-20T21:26:42.211Z,19.72
2022-08-20T21:29:12.439Z,19.56
2022-08-20T21:31:44.023Z,19.34
2022-08-20T21:34:12.884Z,19.22
2022-08-20T21:36:41.173Z,19.14
2022-08-20T21:39:09.589Z,19.12
2022-08-20T21:41:38.437Z,19.06
2022-08-20T21:44:12.528Z,19.00
2022-08-20T21:46:40.851Z,18.96
2022-08-20T21:49:08.974Z,18.99
2022-08-20T21:51:37.110Z,19.03
2022-08-20T21:54:05.381Z,19.03
2022-08-20T21:56:33.998Z,19.04
2022-08-20T21:59:04.249Z,19.10
2022-08-20T22:01:33.852Z,19.12
2022-08-20T22:04:02.414Z,19.04
2022-08-20T22:06:31.439Z,19.13
2022-08-20T22:09:00.066Z,19.05
2022-08-20T22:11:28.452Z,19.04
2022-08-20T22:13:56.743Z,19.11
2022-08-20T22:16:25.148Z,19.17
2022-08-20T22:18:54.929Z,19.22
2022-08-20T22:21:25.806Z,19.13
2022-08-20T22:23:55.586Z,19.07
2022-08-20T22:26:23.710Z,18.99
2022-08-20T22:28:55.503Z,18.99
2022-08-20T22:31:31.560Z,18.93
2022-08-20T22:34:01.476Z,19.14
2022-08-20T22:36:29.912Z,19.19
2022-08-20T22:38:58.065Z,19.22
2022-08-20T22:41:26.303Z,19.19
2022-08-20T22:43:56.507Z,19.20
2022-08-20T22:46:27.423Z,19.19
2022-08-20T22:48:56.056Z,19.20
2022-08-20T22:51:30.447Z,19.23
2022-08-20T22:53:59.448Z,19.19
2022-08-20T22:56:29.988Z,19.24
2022-08-20T22:58:59.440Z,19.20
2022-08-20T23:01:28.793Z,19.16
2022-08-20T23:03:58.689Z,19.10
2022-08-20T23:06:32.003Z,19.00
2022-08-20T23:09:00.218Z,18.93
2022-08-20T23:11:28.339Z,18.90
2022-08-20T23:13:57.820Z,18.85
2022-08-20T23:16:26.668Z,18.83
2022-08-20T23:18:54.792Z,19.06
2022-08-20T23:21:22.978Z,19.15
2022-08-20T23:23:52.550Z,19.17
2022-08-20T23:26:23.373Z,19.20
2022-08-20T23:28:51.611Z,19.27
2022-08-20T23:31:20.130Z,19.35
2022-08-20T23:33:48.908Z,19.36
2022-08-20T23:36:20.692Z,19.38
2022-08-20T23:38:49.340Z,19.37
2022-08-20T23:41:19.238Z,19.33
2022-08-20T23:43:47.544Z,19.23
2022-08-20T23:46:15.815Z,19.18
2022-08-20T23:48:43.916Z,19.29
2022-08-20T23:51:12.572Z,19.34
2022-08-20T23:53:40.827Z,19.35
2022-08-20T23:56:09.141Z,19.35
2022-08-20T23:58:39.026Z,19.35
